createdAt,value
2018-10-17T00:02:32.600Z,97.45
2018-10-17T00:05:37.165Z,97.34
2018-10-17T00:08:42.022Z,97.76
2018-10-17T00:11:46.632Z,97.15
2018-10-17T00:14:51.191Z,98.04
2018-10-17T00:17:55.844Z,97.43
2018-10-17T00:21:00.398Z,98.14
2018-10-17T00:24:05.378Z,98.36
2018-10-17T00:27:10.010Z,98.01
2018-10-17T00:30:14.625Z,97.97
2018-10-17T00:33:19.378Z,98.08
2018-10-17T00:36:23.992Z,98.26
2018-10-17T00:39:28.723Z,97.92
2018-10-17T00:42:33.350Z,97.78
2018-10-17T00:45:38.042Z,98.13
2018-10-17T00:48:42.810Z,98.55
2018-10-17T00:51:47.502Z,98.84
2018-10-17T00:54:52.280Z,98.00
2018-10-17T00:57:56.977Z,98.90
2018-10-17T01:01:01.713Z,98.90
2018-10-17T01:04:06.741Z,99.21
2018-10-17T01:07:11.433Z,98.74
2018-10-17T01:10:16.066Z,99.10
2018-10-17T01:13:20.834Z,98.85
2018-10-17T01:16:25.471Z,99.09
2018-10-17T01:19:30.352Z,98.69
2018-10-17T01:22:34.984Z,99.19
2018-10-17T01:25:39.579Z,98.77
2018-10-17T01:28:44.396Z,99.04
2018-10-17T01:31:49.003Z,98.58
2018-10-17T01:34:56.806Z,99.28
2018-10-17T01:38:01.588Z,99.30
2018-10-17T01:41:06.518Z,99.69
2018-10-17T01:44:11.062Z,98.65
2018-10-17T01:47:15.782Z,99.54
2018-10-17T01:50:20.393Z,99.42
2018-10-17T01:53:25.003Z,98.96
2018-10-17T01:56:29.640Z,99.25
2018-10-17T01:59:34.379Z,98.85
2018-10-17T02:02:38.981Z,99.00
2018-10-17T02:05:43.810Z,99.64
2018-10-17T02:08:48.427Z,99.45
2018-10-17T02:11:53.016Z,99.67
2018-10-17T02:14:57.602Z,100.00
2018-10-17T02:18:02.166Z,99.65
2018-10-17T02:21:07.276Z,99.73
2018-10-17T02:24:12.823Z,99.61
2018-10-17T02:27:17.493Z,99.85
2018-10-17T02:30:22.196Z,100.00
2018-10-17T02:33:26.884Z,99.54
2018-10-17T02:36:31.544Z,99.09
2018-10-17T02:39:36.226Z,99.89
2018-10-17T02:42:41.244Z,99.75
2018-10-17T02:45:45.896Z,99.80
2018-10-17T02:48:50.542Z,99.92
2018-10-17T02:51:55.642Z,100.00
2018-10-17T02:55:00.247Z,100.00
2018-10-17T02:58:05.193Z,99.17
2018-10-17T03:01:09.819Z,99.56
2018-10-17T03:04:14.585Z,99.63
2018-10-17T03:07:19.507Z,99.71
2018-10-17T03:10:24.060Z,99.44
2018-10-17T03:13:28.688Z,99.81
2018-10-17T03:16:33.335Z,99.73
2018-10-17T03:19:38.182Z,99.56
2018-10-17T03:22:42.955Z,99.35
2018-10-17T03:25:47.704Z,99.19
2018-10-17T03:28:52.565Z,99.88
2018-10-17T03:31:57.253Z,100.00
2018-10-17T03:35:01.956Z,99.57
2018-10-17T03:38:07.014Z,100.00
2018-10-17T03:41:11.842Z,100.00
2018-10-17T03:44:16.605Z,100.00
2018-10-17T03:47:21.299Z,99.53
2018-10-17T03:50:25.944Z,100.00
2018-10-17T03:53:30.806Z,100.00
2018-10-17T03:56:35.655Z,99.75
2018-10-17T03:59:40.488Z,99.73
2018-10-17T04:02:44.799Z,99.88
2018-10-17T04:05:49.428Z,99.93
2018-10-17T04:08:54.200Z,100.00
2018-10-17T04:11:59.021Z,100.00
2018-10-17T04:15:03.720Z,99.56
2018-10-17T04:18:08.297Z,100.00
2018-10-17T04:21:13.035Z,100.00
2018-10-17T04:24:17.845Z,100.00
2018-10-17T04:27:22.418Z,100.00
2018-10-17T04:30:27.100Z,100.00
2018-10-17T04:33:31.649Z,100.00
2018-10-17T04:36:36.303Z,100.00
2018-10-17T04:39:41.095Z,100.00
2018-10-17T04:42:45.743Z,100.00
2018-10-17T04:45:50.577Z,100.00
2018-10-17T04:48:55.480Z,100.00
2018-10-17T04:52:00.301Z,99.60
2018-10-17T04:55:05.910Z,99.98
2018-10-17T04:58:10.514Z,99.94
2018-10-17T05:01:15.385Z,99.82
2018-10-17T05:04:19.957Z,99.79
2018-10-17T05:07:24.699Z,99.91
2018-10-17T05:10:29.528Z,100.00
2018-10-17T05:13:34.279Z,99.80
2018-10-17T05:16:39.041Z,100.00
2018-10-17T05:19:43.751Z,100.00
2018-10-17T05:22:48.428Z,100.00
2018-10-17T05:25:53.015Z,100.00
2018-10-17T05:28:57.685Z,100.00
2018-10-17T05:32:02.208Z,100.00
2018-10-17T05:35:07.835Z,100.00
2018-10-17T05:38:12.509Z,100.00
2018-10-17T05:41:17.141Z,100.00
2018-10-17T05:44:21.813Z,100.00
2018-10-17T05:47:26.305Z,100.00
2018-10-17T05:50:30.956Z,100.00
2018-10-17T05:53:35.626Z,100.00
2018-10-17T05:56:40.440Z,100.00
2018-10-17T05:59:45.376Z,100.00
2018-10-17T06:02:49.988Z,100.00
2018-10-17T06:05:54.545Z,100.00
2018-10-17T06:08:59.561Z,100.00
2018-10-17T06:12:04.312Z,100.00
2018-10-17T06:15:08.954Z,100.00
2018-10-17T06:18:13.512Z,100.00
2018-10-17T06:21:18.347Z,100.00
2018-10-17T06:24:22.947Z,100.00
2018-10-17T06:27:27.672Z,100.00
2018-10-17T06:30:32.329Z,99.13
2018-10-17T06:33:37.002Z,99.36
2018-10-17T06:36:41.580Z,99.46
2018-10-17T06:39:46.245Z,99.39
2018-10-17T06:42:50.851Z,99.66
2018-10-17T06:45:55.473Z,99.73
2018-10-17T06:49:00.140Z,99.62
2018-10-17T06:52:04.781Z,99.58
2018-10-17T06:55:09.401Z,99.36
2018-10-17T06:58:13.968Z,97.85
2018-10-17T07:01:18.605Z,98.55
2018-10-17T07:04:23.127Z,98.32
2018-10-17T07:07:27.798Z,97.65
2018-10-17T07:10:32.360Z,97.44
2018-10-17T07:13:36.980Z,97.84
2018-10-17T07:16:41.657Z,97.66
2018-10-17T07:19:46.240Z,97.83
2018-10-17T07:22:51.026Z,96.95
2018-10-17T07:25:55.648Z,96.55
2018-10-17T07:29:00.310Z,96.39
2018-10-17T07:32:04.972Z,95.69
2018-10-17T07:35:10.975Z,95.75
2018-10-17T07:38:15.691Z,95.77
2018-10-17T07:41:20.319Z,95.34
2018-10-17T07:44:25.108Z,94.57
2018-10-17T07:47:29.751Z,93.69
2018-10-17T07:50:34.398Z,92.81
2018-10-17T07:53:39.138Z,91.52
2018-10-17T07:56:43.787Z,89.23
2018-10-17T07:59:48.434Z,89.59
2018-10-17T08:02:53.041Z,88.26
2018-10-17T08:05:57.695Z,88.02
2018-10-17T08:09:02.436Z,86.13
2018-10-17T08:12:07.204Z,87.66
2018-10-17T08:15:12.032Z,86.93
2018-10-17T08:18:16.786Z,88.41
2018-10-17T08:21:21.386Z,86.20
2018-10-17T08:24:25.948Z,85.83
2018-10-17T08:27:30.861Z,83.60
2018-10-17T08:30:35.359Z,82.79
2018-10-17T08:33:39.984Z,83.03
2018-10-17T08:36:45.098Z,81.76
2018-10-17T08:39:49.614Z,81.53
2018-10-17T08:42:54.503Z,84.01
2018-10-17T08:45:59.260Z,82.77
2018-10-17T08:49:04.057Z,81.00
2018-10-17T08:52:09.679Z,80.63
2018-10-17T08:55:14.301Z,80.04
2018-10-17T08:58:19.024Z,78.77
2018-10-17T09:01:23.576Z,79.88
2018-10-17T09:04:28.178Z,78.43
2018-10-17T09:07:32.839Z,77.79
2018-10-17T09:10:37.423Z,76.91
2018-10-17T09:13:42.124Z,76.61
2018-10-17T09:16:47.012Z,75.83
2018-10-17T09:19:51.834Z,76.13
2018-10-17T09:22:56.241Z,73.61
2018-10-17T09:26:00.965Z,73.91
2018-10-17T09:29:05.682Z,74.36
2018-10-17T09:32:10.296Z,74.42
2018-10-17T09:35:15.074Z,73.30
2018-10-17T09:38:19.843Z,72.14
2018-10-17T09:41:24.560Z,71.64
2018-10-17T09:44:29.661Z,71.08
2018-10-17T09:47:34.495Z,69.04
2018-10-17T09:50:39.282Z,67.52
2018-10-17T09:53:44.010Z,67.49
2018-10-17T09:56:48.778Z,68.94
2018-10-17T09:59:53.697Z,68.80
2018-10-17T10:02:58.348Z,67.11
2018-10-17T10:06:03.150Z,66.95
2018-10-17T10:09:10.490Z,67.83
2018-10-17T10:12:15.377Z,66.42
2018-10-17T10:15:19.936Z,65.90
2018-10-17T10:18:24.637Z,66.07
2018-10-17T10:21:29.506Z,65.61
2018-10-17T10:24:34.175Z,64.75
2018-10-17T10:27:40.553Z,64.13
2018-10-17T10:30:45.209Z,64.53
2018-10-17T10:33:49.883Z,63.24
2018-10-17T10:36:54.562Z,61.70
2018-10-17T10:39:59.188Z,61.11
2018-10-17T10:43:03.974Z,60.56
2018-10-17T10:46:09.009Z,60.01
2018-10-17T10:49:13.805Z,59.47
2018-10-17T10:52:18.336Z,58.37
2018-10-17T10:55:23.126Z,57.39
2018-10-17T10:58:28.115Z,57.06
2018-10-17T11:01:32.645Z,55.84
2018-10-17T11:04:43.699Z,56.39
2018-10-17T11:07:48.209Z,56.74
2018-10-17T11:10:53.009Z,56.51
2018-10-17T11:13:57.743Z,57.21
2018-10-17T11:17:02.506Z,55.41
2018-10-17T11:20:08.535Z,53.39
2018-10-17T11:23:14.020Z,53.85
2018-10-17T11:26:18.608Z,53.21
2018-10-17T11:29:23.484Z,53.84
2018-10-17T11:32:28.070Z,54.45
2018-10-17T11:35:32.678Z,53.15
2018-10-17T11:38:37.374Z,51.42
2018-10-17T11:41:42.311Z,52.20
2018-10-17T11:44:47.096Z,52.59
2018-10-17T11:47:51.854Z,52.04
2018-10-17T11:50:56.347Z,52.18
2018-10-17T11:54:02.117Z,50.21
2018-10-17T11:57:06.928Z,51.50
2018-10-17T12:00:13.334Z,51.61
2018-10-17T12:03:18.214Z,50.99
2018-10-17T12:06:22.820Z,50.64
2018-10-17T12:09:27.484Z,51.35
2018-10-17T12:12:32.234Z,50.84
2018-10-17T12:15:40.960Z,50.65
2018-10-17T12:18:45.591Z,50.70
2018-10-17T12:21:50.643Z,50.57
2018-10-17T12:24:55.453Z,50.56
2018-10-17T12:28:00.395Z,49.89
2018-10-17T12:31:05.274Z,49.29
2018-10-17T12:34:09.979Z,49.35
2018-10-17T12:37:14.625Z,49.11
2018-10-17T12:40:19.570Z,48.59
2018-10-17T12:43:24.140Z,46.79
2018-10-17T12:46:29.067Z,46.63
2018-10-17T12:49:34.111Z,45.32
2018-10-17T12:52:38.935Z,45.22
2018-10-17T12:55:44.033Z,45.39
2018-10-17T12:58:49.171Z,45.67
2018-10-17T13:01:54.227Z,46.40
2018-10-17T13:04:58.992Z,45.28
2018-10-17T13:08:03.794Z,46.11
2018-10-17T13:11:08.526Z,46.98
2018-10-17T13:14:13.366Z,47.97
2018-10-17T13:17:18.330Z,46.62
2018-10-17T13:20:23.072Z,47.33
2018-10-17T13:23:28.065Z,47.52
2018-10-17T13:26:32.705Z,47.16
2018-10-17T13:29:37.618Z,47.02
2018-10-17T13:32:42.345Z,46.34
2018-10-17T13:35:47.057Z,46.12
2018-10-17T13:38:51.706Z,47.56
2018-10-17T13:41:56.654Z,47.22
2018-10-17T13:45:01.773Z,47.80
2018-10-17T13:48:06.723Z,46.40
2018-10-17T13:51:11.813Z,48.41
2018-10-17T13:54:16.503Z,48.52
2018-10-17T13:57:21.341Z,49.82
2018-10-17T14:00:26.122Z,50.97
2018-10-17T14:03:30.763Z,51.31
2018-10-17T14:06:35.517Z,50.49
2018-10-17T14:09:40.165Z,50.82
2018-10-17T14:12:44.838Z,51.54
2018-10-17T14:15:49.567Z,51.22
2018-10-17T14:18:54.258Z,51.79
2018-10-17T14:21:59.029Z,52.20
2018-10-17T14:25:03.744Z,53.15
2018-10-17T14:28:08.681Z,54.05
2018-10-17T14:31:13.266Z,54.05
2018-10-17T14:34:17.980Z,53.46
2018-10-17T14:37:22.679Z,54.17
2018-10-17T14:40:27.423Z,55.63
2018-10-17T14:43:32.288Z,55.97
2018-10-17T14:46:37.038Z,57.11
2018-10-17T14:49:41.880Z,55.71
2018-10-17T14:52:46.562Z,56.85
2018-10-17T14:55:51.327Z,57.88
2018-10-17T14:58:55.935Z,57.20
2018-10-17T15:02:00.731Z,58.24
2018-10-17T15:05:05.521Z,59.08
2018-10-17T15:08:10.158Z,58.02
2018-10-17T15:11:15.007Z,57.99
2018-10-17T15:14:19.627Z,58.36
2018-10-17T15:17:24.560Z,58.62
2018-10-17T15:20:29.331Z,59.82
2018-10-17T15:23:34.089Z,58.57
2018-10-17T15:26:38.723Z,59.24
2018-10-17T15:29:43.315Z,59.19
2018-10-17T15:32:48.266Z,60.03
2018-10-17T15:35:52.963Z,60.36
2018-10-17T15:38:57.606Z,60.79
2018-10-17T15:42:02.473Z,62.68
2018-10-17T15:45:07.714Z,62.89
2018-10-17T15:48:12.413Z,62.55
2018-10-17T15:51:16.974Z,63.33
2018-10-17T15:54:21.612Z,63.72
2018-10-17T15:57:26.341Z,65.37
2018-10-17T16:00:30.897Z,65.20
2018-10-17T16:03:35.594Z,66.67
2018-10-17T16:06:40.238Z,67.27
2018-10-17T16:09:44.927Z,65.77
2018-10-17T16:12:49.568Z,67.31
2018-10-17T16:15:54.306Z,67.40
2018-10-17T16:18:58.868Z,67.48
2018-10-17T16:22:03.464Z,68.14
2018-10-17T16:25:08.856Z,69.87
2018-10-17T16:28:13.500Z,70.96
2018-10-17T16:31:18.151Z,71.60
2018-10-17T16:34:22.794Z,72.15
2018-10-17T16:37:27.455Z,73.87
2018-10-17T16:40:32.174Z,73.46
2018-10-17T16:43:36.964Z,74.12
2018-10-17T16:46:41.758Z,74.71
2018-10-17T16:49:46.540Z,75.26
2018-10-17T16:52:51.070Z,75.02
2018-10-17T16:55:55.618Z,75.45
2018-10-17T16:59:00.159Z,76.44
2018-10-17T17:02:05.309Z,76.44
2018-10-17T17:05:13.615Z,77.13
2018-10-17T17:08:18.212Z,78.10
2018-10-17T17:11:22.861Z,78.01
2018-10-17T17:14:27.812Z,78.95
2018-10-17T17:17:32.393Z,79.81
2018-10-17T17:20:37.134Z,80.62
2018-10-17T17:23:42.274Z,80.96
2018-10-17T17:26:46.968Z,80.87
2018-10-17T17:29:51.977Z,80.34
2018-10-17T17:32:56.784Z,81.16
2018-10-17T17:36:01.430Z,81.85
2018-10-17T17:39:08.569Z,81.93
2018-10-17T17:42:13.244Z,81.29
2018-10-17T17:45:17.988Z,81.35
2018-10-17T17:48:22.599Z,81.78
2018-10-17T17:51:27.357Z,82.57
2018-10-17T17:54:32.024Z,83.03
2018-10-17T17:57:36.758Z,83.10
2018-10-17T18:00:41.295Z,84.01
2018-10-17T18:03:45.981Z,84.15
2018-10-17T18:06:50.689Z,83.63
2018-10-17T18:09:55.312Z,84.02
2018-10-17T18:13:00.008Z,84.79
2018-10-17T18:16:04.660Z,83.74
2018-10-17T18:19:09.445Z,85.15
2018-10-17T18:22:14.153Z,85.27
2018-10-17T18:25:18.791Z,84.71
2018-10-17T18:28:23.431Z,84.41
2018-10-17T18:31:28.108Z,85.48
2018-10-17T18:34:32.720Z,84.52
2018-10-17T18:37:37.789Z,85.90
2018-10-17T18:40:42.791Z,85.78
2018-10-17T18:43:47.636Z,86.61
2018-10-17T18:46:52.310Z,87.21
2018-10-17T18:49:57.046Z,87.35
2018-10-17T18:53:01.900Z,87.39
2018-10-17T18:56:06.698Z,86.80
2018-10-17T18:59:11.361Z,87.35
2018-10-17T19:02:16.080Z,87.88
2018-10-17T19:05:20.823Z,88.08
2018-10-17T19:08:25.414Z,87.86
2018-10-17T19:11:30.130Z,88.53
2018-10-17T19:14:34.773Z,89.16
2018-10-17T19:17:39.354Z,88.87
2018-10-17T19:20:43.989Z,88.42
2018-10-17T19:23:48.805Z,88.97
2018-10-17T19:26:53.534Z,88.59
2018-10-17T19:29:58.339Z,88.54
2018-10-17T19:33:02.919Z,88.58
2018-10-17T19:36:07.693Z,88.91
2018-10-17T19:39:13.217Z,90.01
2018-10-17T19:42:17.721Z,89.27
2018-10-17T19:45:29.510Z,90.10
2018-10-17T19:48:34.864Z,90.04
2018-10-17T19:51:39.749Z,90.45
2018-10-17T19:54:44.458Z,90.12
2018-10-17T19:57:49.258Z,90.26
2018-10-17T20:00:54.179Z,89.84
2018-10-17T20:03:58.869Z,90.38
2018-10-17T20:07:03.614Z,90.10
2018-10-17T20:10:08.712Z,89.95
2018-10-17T20:13:13.564Z,90.35
2018-10-17T20:16:18.253Z,90.53
2018-10-17T20:19:22.921Z,90.33
2018-10-17T20:22:27.538Z,90.52
2018-10-17T20:25:39.415Z,90.49
2018-10-17T20:28:44.037Z,90.89
2018-10-17T20:31:48.698Z,91.13
2018-10-17T20:34:53.368Z,91.87
2018-10-17T20:37:57.925Z,92.52
2018-10-17T20:41:02.703Z,92.00
2018-10-17T20:44:07.506Z,92.99
2018-10-17T20:47:12.097Z,92.81
2018-10-17T20:50:16.863Z,93.25
2018-10-17T20:53:21.431Z,93.33
2018-10-17T20:56:26.044Z,93.15
2018-10-17T20:59:30.623Z,92.69
2018-10-17T21:02:35.339Z,92.74
2018-10-17T21:05:39.987Z,92.83
2018-10-17T21:08:44.649Z,93.83
2018-10-17T21:11:49.384Z,94.37
2018-10-17T21:14:53.959Z,94.34
2018-10-17T21:17:58.631Z,95.07
2018-10-17T21:21:03.319Z,94.72
2018-10-17T21:24:07.894Z,94.67
2018-10-17T21:27:12.586Z,94.50
2018-10-17T21:30:17.365Z,95.00
2018-10-17T21:33:22.085Z,95.29
2018-10-17T21:36:28.808Z,94.70
2018-10-17T21:39:33.451Z,94.96
2018-10-17T21:42:38.346Z,95.04
2018-10-17T21:45:43.059Z,96.00
2018-10-17T21:48:48.047Z,95.87
2018-10-17T21:51:52.647Z,95.02
2018-10-17T21:54:57.376Z,95.87
2018-10-17T21:58:01.980Z,95.87
2018-10-17T22:01:06.669Z,95.91
2018-10-17T22:04:11.367Z,96.54
2018-10-17T22:07:16.142Z,96.47
2018-10-17T22:10:20.889Z,97.25
2018-10-17T22:13:25.487Z,96.57
2018-10-17T22:16:35.496Z,96.86
2018-10-17T22:19:40.460Z,97.42
2018-10-17T22:22:45.479Z,96.96
2018-10-17T22:25:50.497Z,97.20
2018-10-17T22:28:55.207Z,96.80
2018-10-17T22:32:00.101Z,97.19
2018-10-17T22:35:04.785Z,97.73
2018-10-17T22:38:09.412Z,97.55
2018-10-17T22:41:14.276Z,98.01
2018-10-17T22:44:18.855Z,97.96
2018-10-17T22:47:23.568Z,98.24
2018-10-17T22:50:28.844Z,97.86
2018-10-17T22:53:33.513Z,97.97
2018-10-17T22:56:39.161Z,98.06
2018-10-17T22:59:44.045Z,98.16
2018-10-17T23:02:48.738Z,98.70
2018-10-17T23:05:53.295Z,98.68
2018-10-17T23:08:57.902Z,98.36
2018-10-17T23:12:02.556Z,98.98
2018-10-17T23:15:12.890Z,98.65
2018-10-17T23:18:17.514Z,98.75
2018-10-17T23:21:22.088Z,98.34
2018-10-17T23:24:26.646Z,98.52
2018-10-17T23:27:31.388Z,99.14
2018-10-17T23:30:35.939Z,99.32
2018-10-17T23:33:40.614Z,99.28
2018-10-17T23:36:45.329Z,98.51
2018-10-17T23:39:50.263Z,99.02
2018-10-17T23:42:54.956Z,99.28
2018-10-17T23:46:00.582Z,99.94
2018-10-17T23:49:05.436Z,99.45
2018-10-17T23:52:10.031Z,98.94
2018-10-17T23:55:14.798Z,98.94
2018-10-17T23:58:19.490Z,99.14
